Joao Neiva, Brazil
Current Conditions -  °F | °C
As of 6:00 AM on Friday 31 Oct 2014 (Local Time) from SBVT Reporting Station
Light Rain Light Rain  
Wind Chill: 72°   Ceiling: 1200
Heat Index: 72°   Visibility: 3mi
Dew Point: 68°   Wind: 8mph
Humidity: 88%   Direction: 10°N
Pressure: 29.97"   Gusts: NA
Location:  19.75°S, 40.4°W
Report Text: SBVT 310800Z 01007KT 5000 -RA BKN012 OVC080 22/20 Q1015
Loading
Personal Weather Stations






























Interactive Weather Map
Tropical Storm Tracking
New forecast layout! Learn more

10-Day Weather Forecast

Advertisements
Track Severe Weather on mobile